sensor_id;sensor_type;location;lat;lon;timestamp;P1;durP1;ratioP1;P2;durP2;ratioP2
7881;SDS011;3986;41.884;23.466;2022-07-17T00:00:26;18.55;;;16.65;;
7881;SDS011;3986;41.884;23.466;2022-07-17T00:02:53;19.92;;;16.77;;
7881;SDS011;3986;41.884;23.466;2022-07-17T00:05:21;18.55;;;16.83;;
7881;SDS011;3986;41.884;23.466;2022-07-17T00:07:48;19.92;;;17.10;;
7881;SDS011;3986;41.884;23.466;2022-07-17T00:10:15;17.67;;;16.48;;
7881;SDS011;3986;41.884;23.466;2022-07-17T00:12:42;18.40;;;16.98;;
7881;SDS011;3986;41.884;23.466;2022-07-17T00:15:09;17.02;;;15.65;;
7881;SDS011;3986;41.884;23.466;2022-07-17T00:17:37;21.10;;;19.60;;
7881;SDS011;3986;41.884;23.466;2022-07-17T00:20:04;30.55;;;27.42;;
7881;SDS011;3986;41.884;23.466;2022-07-17T00:22:34;26.70;;;23.45;;
7881;SDS011;3986;41.884;23.466;2022-07-17T00:25:01;22.52;;;20.23;;
7881;SDS011;3986;41.884;23.466;2022-07-17T00:27:28;24.52;;;21.67;;
7881;SDS011;3986;41.884;23.466;2022-07-17T00:29:55;24.02;;;21.50;;
7881;SDS011;3986;41.884;23.466;2022-07-17T00:32:22;22.33;;;20.15;;
7881;SDS011;3986;41.884;23.466;2022-07-17T00:34:49;21.80;;;19.75;;
7881;SDS011;3986;41.884;23.466;2022-07-17T00:37:16;22.55;;;20.38;;
7881;SDS011;3986;41.884;23.466;2022-07-17T00:39:45;23.65;;;21.55;;
7881;SDS011;3986;41.884;23.466;2022-07-17T00:42:12;25.25;;;23.35;;
7881;SDS011;3986;41.884;23.466;2022-07-17T00:44:39;24.60;;;22.70;;
7881;SDS011;3986;41.884;23.466;2022-07-17T00:47:09;24.40;;;22.38;;
7881;SDS011;3986;41.884;23.466;2022-07-17T00:49:39;21.90;;;20.15;;
7881;SDS011;3986;41.884;23.466;2022-07-17T00:52:06;26.63;;;24.02;;
7881;SDS011;3986;41.884;23.466;2022-07-17T00:54:34;25.00;;;22.35;;
7881;SDS011;3986;41.884;23.466;2022-07-17T00:57:03;24.83;;;21.75;;
7881;SDS011;3986;41.884;23.466;2022-07-17T00:59:32;27.48;;;24.73;;
7881;SDS011;3986;41.884;23.466;2022-07-17T01:02:00;29.00;;;26.33;;
7881;SDS011;3986;41.884;23.466;2022-07-17T01:04:29;30.00;;;26.13;;
7881;SDS011;3986;41.884;23.466;2022-07-17T01:06:57;34.42;;;31.20;;
7881;SDS011;3986;41.884;23.466;2022-07-17T01:09:23;32.08;;;28.70;;
7881;SDS011;3986;41.884;23.466;2022-07-17T01:11:50;44.22;;;29.25;;
7881;SDS011;3986;41.884;23.466;2022-07-17T01:14:19;30.80;;;25.42;;
7881;SDS011;3986;41.884;23.466;2022-07-17T01:16:47;29.25;;;22.55;;
7881;SDS011;3986;41.884;23.466;2022-07-17T01:19:14;26.80;;;24.35;;
7881;SDS011;3986;41.884;23.466;2022-07-17T01:21:44;27.80;;;24.70;;
7881;SDS011;3986;41.884;23.466;2022-07-17T01:24:13;28.33;;;23.85;;
7881;SDS011;3986;41.884;23.466;2022-07-17T01:26:40;23.57;;;21.77;;
7881;SDS011;3986;41.884;23.466;2022-07-17T01:29:08;23.58;;;21.80;;
7881;SDS011;3986;41.884;23.466;2022-07-17T01:31:35;23.35;;;20.55;;
7881;SDS011;3986;41.884;23.466;2022-07-17T01:34:02;24.40;;;21.90;;
7881;SDS011;3986;41.884;23.466;2022-07-17T01:36:32;24.98;;;22.75;;
7881;SDS011;3986;41.884;23.466;2022-07-17T01:39:00;26.50;;;23.83;;
7881;SDS011;3986;41.884;23.466;2022-07-17T01:41:27;25.27;;;22.92;;
7881;SDS011;3986;41.884;23.466;2022-07-17T01:43:54;26.13;;;23.83;;
7881;SDS011;3986;41.884;23.466;2022-07-17T01:46:21;26.30;;;23.95;;
7881;SDS011;3986;41.884;23.466;2022-07-17T01:48:48;33.97;;;25.25;;
7881;SDS011;3986;41.884;23.466;2022-07-17T01:51:15;32.63;;;29.20;;
7881;SDS011;3986;41.884;23.466;2022-07-17T01:53:42;30.45;;;27.83;;
7881;SDS011;3986;41.884;23.466;2022-07-17T01:56:10;31.92;;;29.23;;
7881;SDS011;3986;41.884;23.466;2022-07-17T01:58:37;34.17;;;31.33;;
7881;SDS011;3986;41.884;23.466;2022-07-17T02:01:04;46.95;;;42.65;;
7881;SDS011;3986;41.884;23.466;2022-07-17T02:03:31;50.53;;;46.13;;
7881;SDS011;3986;41.884;23.466;2022-07-17T02:05:58;48.85;;;44.85;;
7881;SDS011;3986;41.884;23.466;2022-07-17T02:08:24;47.38;;;43.35;;
7881;SDS011;3986;41.884;23.466;2022-07-17T02:10:51;46.13;;;42.28;;
7881;SDS011;3986;41.884;23.466;2022-07-17T02:13:19;34.50;;;31.90;;
7881;SDS011;3986;41.884;23.466;2022-07-17T02:15:46;30.30;;;28.10;;
7881;SDS011;3986;41.884;23.466;2022-07-17T02:18:13;28.95;;;26.60;;
7881;SDS011;3986;41.884;23.466;2022-07-17T02:20:40;25.50;;;23.55;;
7881;SDS011;3986;41.884;23.466;2022-07-17T02:23:10;23.92;;;22.02;;
7881;SDS011;3986;41.884;23.466;2022-07-17T02:25:37;27.80;;;21.60;;
7881;SDS011;3986;41.884;23.466;2022-07-17T02:28:04;33.45;;;21.77;;
7881;SDS011;3986;41.884;23.466;2022-07-17T02:30:32;22.65;;;20.40;;
7881;SDS011;3986;41.884;23.466;2022-07-17T02:32:59;25.33;;;19.85;;
7881;SDS011;3986;41.884;23.466;2022-07-17T02:35:26;20.75;;;18.63;;
7881;SDS011;3986;41.884;23.466;2022-07-17T02:37:52;20.80;;;18.90;;
7881;SDS011;3986;41.884;23.466;2022-07-17T02:40:19;19.77;;;18.33;;
7881;SDS011;3986;41.884;23.466;2022-07-17T02:42:46;19.33;;;17.85;;
7881;SDS011;3986;41.884;23.466;2022-07-17T02:45:13;23.60;;;21.65;;
7881;SDS011;3986;41.884;23.466;2022-07-17T02:47:42;30.43;;;27.30;;
7881;SDS011;3986;41.884;23.466;2022-07-17T02:50:09;40.67;;;36.90;;
7881;SDS011;3986;41.884;23.466;2022-07-17T02:52:36;47.33;;;38.28;;
7881;SDS011;3986;41.884;23.466;2022-07-17T02:55:03;37.70;;;33.78;;
7881;SDS011;3986;41.884;23.466;2022-07-17T02:57:30;39.10;;;35.35;;
7881;SDS011;3986;41.884;23.466;2022-07-17T02:59:58;35.33;;;31.95;;
7881;SDS011;3986;41.884;23.466;2022-07-17T03:02:25;32.97;;;30.13;;
7881;SDS011;3986;41.884;23.466;2022-07-17T03:04:53;29.03;;;26.40;;
7881;SDS011;3986;41.884;23.466;2022-07-17T03:07:20;31.55;;;28.85;;
7881;SDS011;3986;41.884;23.466;2022-07-17T03:09:47;33.42;;;30.85;;
7881;SDS011;3986;41.884;23.466;2022-07-17T03:12:13;33.22;;;30.58;;
7881;SDS011;3986;41.884;23.466;2022-07-17T03:14:40;33.90;;;31.33;;
7881;SDS011;3986;41.884;23.466;2022-07-17T03:17:07;37.05;;;33.83;;
7881;SDS011;3986;41.884;23.466;2022-07-17T03:19:34;34.45;;;31.50;;
7881;SDS011;3986;41.884;23.466;2022-07-17T03:22:02;34.75;;;31.90;;
7881;SDS011;3986;41.884;23.466;2022-07-17T03:24:29;36.15;;;32.42;;
7881;SDS011;3986;41.884;23.466;2022-07-17T03:26:56;33.65;;;30.33;;
7881;SDS011;3986;41.884;23.466;2022-07-17T03:29:23;37.03;;;33.65;;
7881;SDS011;3986;41.884;23.466;2022-07-17T03:31:50;38.80;;;35.70;;
7881;SDS011;3986;41.884;23.466;2022-07-17T03:34:17;38.15;;;35.30;;
7881;SDS011;3986;41.884;23.466;2022-07-17T03:36:44;38.10;;;35.13;;
7881;SDS011;3986;41.884;23.466;2022-07-17T03:39:13;39.42;;;35.50;;
7881;SDS011;3986;41.884;23.466;2022-07-17T03:41:40;39.92;;;36.63;;
7881;SDS011;3986;41.884;23.466;2022-07-17T03:44:07;40.83;;;37.30;;
7881;SDS011;3986;41.884;23.466;2022-07-17T03:46:34;38.55;;;34.80;;
7881;SDS011;3986;41.884;23.466;2022-07-17T03:49:00;43.42;;;39.30;;
7881;SDS011;3986;41.884;23.466;2022-07-17T03:51:28;53.92;;;48.13;;
7881;SDS011;3986;41.884;23.466;2022-07-17T03:53:55;45.72;;;42.03;;
7881;SDS011;3986;41.884;23.466;2022-07-17T03:56:23;50.42;;;46.58;;
7881;SDS011;3986;41.884;23.466;2022-07-17T03:58:50;52.90;;;48.63;;
7881;SDS011;3986;41.884;23.466;2022-07-17T04:01:16;46.28;;;42.53;;
7881;SDS011;3986;41.884;23.466;2022-07-17T04:03:43;45.05;;;41.70;;
7881;SDS011;3986;41.884;23.466;2022-07-17T04:06:10;43.42;;;39.83;;
7881;SDS011;3986;41.884;23.466;2022-07-17T04:08:37;32.58;;;29.85;;
7881;SDS011;3986;41.884;23.466;2022-07-17T04:11:04;29.42;;;26.48;;
7881;SDS011;3986;41.884;23.466;2022-07-17T04:13:32;30.17;;;27.38;;
7881;SDS011;3986;41.884;23.466;2022-07-17T04:15:59;34.67;;;31.33;;
7881;SDS011;3986;41.884;23.466;2022-07-17T04:18:27;35.33;;;31.90;;
7881;SDS011;3986;41.884;23.466;2022-07-17T04:20:56;32.70;;;30.17;;
7881;SDS011;3986;41.884;23.466;2022-07-17T04:23:23;32.42;;;30.02;;
7881;SDS011;3986;41.884;23.466;2022-07-17T04:25:52;32.28;;;29.98;;
7881;SDS011;3986;41.884;23.466;2022-07-17T04:28:19;30.85;;;28.65;;
7881;SDS011;3986;41.884;23.466;2022-07-17T04:30:48;32.78;;;30.27;;
7881;SDS011;3986;41.884;23.466;2022-07-17T04:33:15;32.58;;;30.25;;
7881;SDS011;3986;41.884;23.466;2022-07-17T04:35:43;32.47;;;29.73;;
7881;SDS011;3986;41.884;23.466;2022-07-17T04:38:10;34.95;;;31.73;;
7881;SDS011;3986;41.884;23.466;2022-07-17T04:40:37;32.80;;;29.85;;
7881;SDS011;3986;41.884;23.466;2022-07-17T04:43:05;31.80;;;29.05;;
7881;SDS011;3986;41.884;23.466;2022-07-17T04:45:33;33.42;;;30.23;;
7881;SDS011;3986;41.884;23.466;2022-07-17T04:48:01;44.85;;;40.80;;
7881;SDS011;3986;41.884;23.466;2022-07-17T04:50:28;46.35;;;42.78;;
7881;SDS011;3986;41.884;23.466;2022-07-17T04:52:55;42.17;;;39.08;;
7881;SDS011;3986;41.884;23.466;2022-07-17T04:55:22;40.35;;;37.50;;
7881;SDS011;3986;41.884;23.466;2022-07-17T04:57:49;42.72;;;39.03;;
7881;SDS011;3986;41.884;23.466;2022-07-17T05:00:16;46.65;;;42.75;;
7881;SDS011;3986;41.884;23.466;2022-07-17T05:02:43;43.55;;;39.65;;
7881;SDS011;3986;41.884;23.466;2022-07-17T05:05:11;35.63;;;32.42;;
7881;SDS011;3986;41.884;23.466;2022-07-17T05:07:38;36.30;;;32.60;;
7881;SDS011;3986;41.884;23.466;2022-07-17T05:10:05;37.30;;;33.78;;
7881;SDS011;3986;41.884;23.466;2022-07-17T05:12:34;40.80;;;37.08;;
7881;SDS011;3986;41.884;23.466;2022-07-17T05:15:00;40.03;;;36.55;;
7881;SDS011;3986;41.884;23.466;2022-07-17T05:17:27;39.58;;;36.35;;
7881;SDS011;3986;41.884;23.466;2022-07-17T05:19:54;37.65;;;35.00;;
7881;SDS011;3986;41.884;23.466;2022-07-17T05:22:22;39.67;;;37.00;;
7881;SDS011;3986;41.884;23.466;2022-07-17T05:24:49;38.65;;;35.55;;
7881;SDS011;3986;41.884;23.466;2022-07-17T05:27:16;37.25;;;34.05;;
7881;SDS011;3986;41.884;23.466;2022-07-17T05:29:43;33.95;;;31.48;;
7881;SDS011;3986;41.884;23.466;2022-07-17T05:32:09;41.50;;;37.40;;
7881;SDS011;3986;41.884;23.466;2022-07-17T05:34:36;39.00;;;35.25;;
7881;SDS011;3986;41.884;23.466;2022-07-17T05:37:03;41.92;;;38.40;;
7881;SDS011;3986;41.884;23.466;2022-07-17T05:39:31;42.80;;;39.28;;
7881;SDS011;3986;41.884;23.466;2022-07-17T05:42:07;40.08;;;37.10;;
7881;SDS011;3986;41.884;23.466;2022-07-17T05:44:34;41.90;;;38.53;;
7881;SDS011;3986;41.884;23.466;2022-07-17T05:47:01;40.05;;;36.47;;
7881;SDS011;3986;41.884;23.466;2022-07-17T05:49:27;35.30;;;32.75;;
7881;SDS011;3986;41.884;23.466;2022-07-17T05:51:54;34.22;;;31.92;;
7881;SDS011;3986;41.884;23.466;2022-07-17T05:54:21;44.30;;;40.25;;
7881;SDS011;3986;41.884;23.466;2022-07-17T05:56:49;50.75;;;46.10;;
7881;SDS011;3986;41.884;23.466;2022-07-17T05:59:16;52.63;;;47.67;;
7881;SDS011;3986;41.884;23.466;2022-07-17T06:01:43;37.58;;;34.25;;
7881;SDS011;3986;41.884;23.466;2022-07-17T06:04:10;43.85;;;36.38;;
7881;SDS011;3986;41.884;23.466;2022-07-17T06:06:36;41.53;;;37.42;;
7881;SDS011;3986;41.884;23.466;2022-07-17T06:09:03;36.78;;;34.00;;
7881;SDS011;3986;41.884;23.466;2022-07-17T06:11:30;36.13;;;32.95;;
7881;SDS011;3986;41.884;23.466;2022-07-17T06:13:58;32.92;;;30.55;;
7881;SDS011;3986;41.884;23.466;2022-07-17T06:16:25;27.77;;;25.88;;
7881;SDS011;3986;41.884;23.466;2022-07-17T06:18:52;35.53;;;27.00;;
7881;SDS011;3986;41.884;23.466;2022-07-17T06:21:18;28.80;;;27.00;;
7881;SDS011;3986;41.884;23.466;2022-07-17T06:23:45;35.28;;;31.83;;
7881;SDS011;3986;41.884;23.466;2022-07-17T06:26:12;32.03;;;29.92;;
7881;SDS011;3986;41.884;23.466;2022-07-17T06:28:39;34.97;;;30.55;;
7881;SDS011;3986;41.884;23.466;2022-07-17T06:31:07;31.85;;;28.77;;
7881;SDS011;3986;41.884;23.466;2022-07-17T06:33:34;32.33;;;29.58;;
7881;SDS011;3986;41.884;23.466;2022-07-17T06:36:02;29.83;;;27.58;;
7881;SDS011;3986;41.884;23.466;2022-07-17T06:38:29;31.17;;;28.88;;
7881;SDS011;3986;41.884;23.466;2022-07-17T06:40:55;32.92;;;30.00;;
7881;SDS011;3986;41.884;23.466;2022-07-17T06:43:22;35.75;;;32.28;;
7881;SDS011;3986;41.884;23.466;2022-07-17T06:45:49;36.08;;;26.85;;
7881;SDS011;3986;41.884;23.466;2022-07-17T06:48:20;45.90;;;27.23;;
7881;SDS011;3986;41.884;23.466;2022-07-17T06:50:48;34.25;;;27.95;;
7881;SDS011;3986;41.884;23.466;2022-07-17T06:53:15;28.88;;;26.23;;
7881;SDS011;3986;41.884;23.466;2022-07-17T06:55:42;32.03;;;26.73;;
7881;SDS011;3986;41.884;23.466;2022-07-17T06:58:08;31.55;;;28.10;;
7881;SDS011;3986;41.884;23.466;2022-07-17T07:00:35;33.80;;;30.48;;
7881;SDS011;3986;41.884;23.466;2022-07-17T07:03:02;31.65;;;27.95;;
7881;SDS011;3986;41.884;23.466;2022-07-17T07:05:30;27.83;;;25.42;;
7881;SDS011;3986;41.884;23.466;2022-07-17T07:07:57;28.70;;;25.90;;
7881;SDS011;3986;41.884;23.466;2022-07-17T07:10:24;30.92;;;28.40;;
7881;SDS011;3986;41.884;23.466;2022-07-17T07:12:51;30.33;;;28.00;;
7881;SDS011;3986;41.884;23.466;2022-07-17T07:15:18;28.77;;;25.77;;
7881;SDS011;3986;41.884;23.466;2022-07-17T07:17:45;25.42;;;23.33;;
7881;SDS011;3986;41.884;23.466;2022-07-17T07:20:12;33.25;;;26.52;;
7881;SDS011;3986;41.884;23.466;2022-07-17T07:22:40;26.75;;;24.02;;
7881;SDS011;3986;41.884;23.466;2022-07-17T07:25:07;25.92;;;23.10;;
7881;SDS011;3986;41.884;23.466;2022-07-17T07:27:35;32.72;;;23.63;;
7881;SDS011;3986;41.884;23.466;2022-07-17T07:30:02;26.52;;;23.80;;
7881;SDS011;3986;41.884;23.466;2022-07-17T07:32:30;37.05;;;33.70;;
7881;SDS011;3986;41.884;23.466;2022-07-17T07:34:57;33.08;;;29.85;;
7881;SDS011;3986;41.884;23.466;2022-07-17T07:37:24;29.17;;;21.20;;
7881;SDS011;3986;41.884;23.466;2022-07-17T07:39:52;16.23;;;14.75;;
7881;SDS011;3986;41.884;23.466;2022-07-17T07:42:19;15.35;;;13.45;;
7881;SDS011;3986;41.884;23.466;2022-07-17T07:44:46;20.40;;;18.33;;
7881;SDS011;3986;41.884;23.466;2022-07-17T07:47:12;18.20;;;12.90;;
7881;SDS011;3986;41.884;23.466;2022-07-17T07:49:39;32.58;;;15.35;;
7881;SDS011;3986;41.884;23.466;2022-07-17T07:52:06;19.60;;;12.57;;
7881;SDS011;3986;41.884;23.466;2022-07-17T07:54:33;20.10;;;11.13;;
7881;SDS011;3986;41.884;23.466;2022-07-17T07:57:02;12.18;;;10.27;;
7881;SDS011;3986;41.884;23.466;2022-07-17T07:59:29;14.85;;;10.05;;
7881;SDS011;3986;41.884;23.466;2022-07-17T08:01:58;11.48;;;9.27;;
7881;SDS011;3986;41.884;23.466;2022-07-17T08:04:25;14.50;;;10.73;;
7881;SDS011;3986;41.884;23.466;2022-07-17T08:06:52;16.67;;;9.68;;
7881;SDS011;3986;41.884;23.466;2022-07-17T08:09:19;11.02;;;9.23;;
7881;SDS011;3986;41.884;23.466;2022-07-17T08:11:45;22.13;;;10.77;;
7881;SDS011;3986;41.884;23.466;2022-07-17T08:14:14;12.82;;;9.65;;
7881;SDS011;3986;41.884;23.466;2022-07-17T08:16:40;20.20;;;11.13;;
7881;SDS011;3986;41.884;23.466;2022-07-17T08:19:07;14.88;;;9.30;;
7881;SDS011;3986;41.884;23.466;2022-07-17T08:21:34;9.68;;;8.68;;
7881;SDS011;3986;41.884;23.466;2022-07-17T08:24:01;22.40;;;11.23;;
7881;SDS011;3986;41.884;23.466;2022-07-17T08:26:28;15.90;;;12.85;;
7881;SDS011;3986;41.884;23.466;2022-07-17T08:28:55;20.33;;;12.10;;
7881;SDS011;3986;41.884;23.466;2022-07-17T08:31:23;31.55;;;17.65;;
7881;SDS011;3986;41.884;23.466;2022-07-17T08:33:50;28.17;;;17.10;;
7881;SDS011;3986;41.884;23.466;2022-07-17T08:36:17;35.40;;;16.85;;
7881;SDS011;3986;41.884;23.466;2022-07-17T08:38:44;21.33;;;14.55;;
7881;SDS011;3986;41.884;23.466;2022-07-17T08:41:10;25.38;;;10.68;;
7881;SDS011;3986;41.884;23.466;2022-07-17T08:43:41;32.08;;;12.77;;
7881;SDS011;3986;41.884;23.466;2022-07-17T08:46:09;29.20;;;10.65;;
7881;SDS011;3986;41.884;23.466;2022-07-17T08:48:38;25.92;;;9.82;;
7881;SDS011;3986;41.884;23.466;2022-07-17T08:51:07;14.10;;;8.90;;
7881;SDS011;3986;41.884;23.466;2022-07-17T08:53:36;18.48;;;9.38;;
7881;SDS011;3986;41.884;23.466;2022-07-17T08:56:03;16.20;;;8.52;;
7881;SDS011;3986;41.884;23.466;2022-07-17T08:58:30;15.43;;;9.07;;
7881;SDS011;3986;41.884;23.466;2022-07-17T09:00:57;11.73;;;9.52;;
7881;SDS011;3986;41.884;23.466;2022-07-17T09:03:24;18.88;;;10.73;;
7881;SDS011;3986;41.884;23.466;2022-07-17T09:05:52;22.80;;;12.05;;
7881;SDS011;3986;41.884;23.466;2022-07-17T09:08:20;19.23;;;10.82;;
7881;SDS011;3986;41.884;23.466;2022-07-17T09:10:49;19.30;;;11.32;;
7881;SDS011;3986;41.884;23.466;2022-07-17T09:13:18;18.73;;;10.73;;
7881;SDS011;3986;41.884;23.466;2022-07-17T09:15:46;32.70;;;12.93;;
7881;SDS011;3986;41.884;23.466;2022-07-17T09:18:14;29.20;;;13.45;;
7881;SDS011;3986;41.884;23.466;2022-07-17T09:20:47;23.25;;;11.75;;
7881;SDS011;3986;41.884;23.466;2022-07-17T09:23:16;24.67;;;12.48;;
7881;SDS011;3986;41.884;23.466;2022-07-17T09:25:45;38.53;;;14.80;;
7881;SDS011;3986;41.884;23.466;2022-07-17T09:28:13;14.88;;;10.27;;
7881;SDS011;3986;41.884;23.466;2022-07-17T09:30:42;26.52;;;12.15;;
7881;SDS011;3986;41.884;23.466;2022-07-17T09:33:12;18.15;;;10.25;;
7881;SDS011;3986;41.884;23.466;2022-07-17T09:35:44;17.70;;;10.68;;
7881;SDS011;3986;41.884;23.466;2022-07-17T09:38:12;25.40;;;10.77;;
7881;SDS011;3986;41.884;23.466;2022-07-17T09:41:01;41.55;;;13.27;;
7881;SDS011;3986;41.884;23.466;2022-07-17T09:43:39;24.13;;;10.30;;
7881;SDS011;3986;41.884;23.466;2022-07-17T09:46:09;15.43;;;9.82;;
7881;SDS011;3986;41.884;23.466;2022-07-17T09:48:40;14.27;;;9.93;;
7881;SDS011;3986;41.884;23.466;2022-07-17T09:51:12;15.35;;;8.82;;
7881;SDS011;3986;41.884;23.466;2022-07-17T09:53:42;13.25;;;9.02;;
7881;SDS011;3986;41.884;23.466;2022-07-17T09:56:12;26.67;;;10.43;;
7881;SDS011;3986;41.884;23.466;2022-07-17T09:58:41;37.65;;;11.82;;
7881;SDS011;3986;41.884;23.466;2022-07-17T10:01:11;18.13;;;8.85;;
7881;SDS011;3986;41.884;23.466;2022-07-17T10:03:39;29.30;;;10.07;;
7881;SDS011;3986;41.884;23.466;2022-07-17T10:06:06;27.30;;;10.10;;
7881;SDS011;3986;41.884;23.466;2022-07-17T10:08:34;24.98;;;10.02;;
7881;SDS011;3986;41.884;23.466;2022-07-17T10:11:02;19.80;;;9.35;;
7881;SDS011;3986;41.884;23.466;2022-07-17T10:13:31;37.40;;;10.38;;
7881;SDS011;3986;41.884;23.466;2022-07-17T10:15:58;23.63;;;8.45;;
7881;SDS011;3986;41.884;23.466;2022-07-17T10:18:33;21.27;;;7.78;;
7881;SDS011;3986;41.884;23.466;2022-07-17T10:21:10;83.68;;;15.18;;
7881;SDS011;3986;41.884;23.466;2022-07-17T10:23:39;32.60;;;10.00;;
7881;SDS011;3986;41.884;23.466;2022-07-17T10:26:07;46.08;;;10.13;;
7881;SDS011;3986;41.884;23.466;2022-07-17T10:28:42;20.67;;;7.88;;
7881;SDS011;3986;41.884;23.466;2022-07-17T10:31:22;15.20;;;6.85;;
7881;SDS011;3986;41.884;23.466;2022-07-17T10:33:56;20.30;;;7.35;;
7881;SDS011;3986;41.884;23.466;2022-07-17T10:36:33;28.42;;;7.55;;
7881;SDS011;3986;41.884;23.466;2022-07-17T10:39:11;39.08;;;8.70;;
7881;SDS011;3986;41.884;23.466;2022-07-17T10:41:39;16.23;;;6.30;;
7881;SDS011;3986;41.884;23.466;2022-07-17T10:44:07;35.72;;;9.05;;
7881;SDS011;3986;41.884;23.466;2022-07-17T10:46:35;31.05;;;7.65;;
7881;SDS011;3986;41.884;23.466;2022-07-17T10:49:02;31.83;;;7.78;;
7881;SDS011;3986;41.884;23.466;2022-07-17T10:51:29;24.35;;;7.32;;
7881;SDS011;3986;41.884;23.466;2022-07-17T10:53:56;34.05;;;8.00;;
7881;SDS011;3986;41.884;23.466;2022-07-17T10:56:24;18.67;;;6.35;;
7881;SDS011;3986;41.884;23.466;2022-07-17T10:58:52;20.45;;;6.43;;
7881;SDS011;3986;41.884;23.466;2022-07-17T11:01:20;7.53;;;5.45;;
7881;SDS011;3986;41.884;23.466;2022-07-17T11:03:49;20.52;;;6.38;;
7881;SDS011;3986;41.884;23.466;2022-07-17T11:06:17;15.75;;;5.82;;
7881;SDS011;3986;41.884;23.466;2022-07-17T11:08:46;8.20;;;5.13;;
7881;SDS011;3986;41.884;23.466;2022-07-17T11:11:15;6.05;;;5.13;;
7881;SDS011;3986;41.884;23.466;2022-07-17T11:13:43;13.57;;;5.82;;
7881;SDS011;3986;41.884;23.466;2022-07-17T11:16:10;12.75;;;5.53;;
7881;SDS011;3986;41.884;23.466;2022-07-17T11:18:46;8.95;;;4.80;;
7881;SDS011;3986;41.884;23.466;2022-07-17T11:21:13;19.75;;;6.72;;
7881;SDS011;3986;41.884;23.466;2022-07-17T11:23:49;18.23;;;6.15;;
7881;SDS011;3986;41.884;23.466;2022-07-17T11:26:17;14.20;;;5.53;;
7881;SDS011;3986;41.884;23.466;2022-07-17T11:28:45;54.38;;;8.35;;
7881;SDS011;3986;41.884;23.466;2022-07-17T11:31:16;46.08;;;9.10;;
7881;SDS011;3986;41.884;23.466;2022-07-17T11:33:49;37.08;;;7.60;;
7881;SDS011;3986;41.884;23.466;2022-07-17T11:36:22;30.00;;;7.15;;
7881;SDS011;3986;41.884;23.466;2022-07-17T11:38:49;5.57;;;4.32;;
7881;SDS011;3986;41.884;23.466;2022-07-17T11:41:17;18.25;;;6.10;;
7881;SDS011;3986;41.884;23.466;2022-07-17T11:43:44;15.50;;;6.22;;
7881;SDS011;3986;41.884;23.466;2022-07-17T11:46:11;24.73;;;6.80;;
7881;SDS011;3986;41.884;23.466;2022-07-17T11:48:41;16.73;;;6.05;;
7881;SDS011;3986;41.884;23.466;2022-07-17T11:51:10;22.10;;;6.20;;
7881;SDS011;3986;41.884;23.466;2022-07-17T11:53:38;20.27;;;6.10;;
7881;SDS011;3986;41.884;23.466;2022-07-17T11:56:06;12.82;;;5.63;;
7881;SDS011;3986;41.884;23.466;2022-07-17T11:58:43;17.67;;;6.05;;
7881;SDS011;3986;41.884;23.466;2022-07-17T12:01:11;31.98;;;7.13;;
7881;SDS011;3986;41.884;23.466;2022-07-17T12:03:38;17.58;;;5.82;;
7881;SDS011;3986;41.884;23.466;2022-07-17T12:06:05;30.63;;;7.20;;
7881;SDS011;3986;41.884;23.466;2022-07-17T12:08:34;21.38;;;6.55;;
7881;SDS011;3986;41.884;23.466;2022-07-17T12:11:02;19.15;;;6.50;;
7881;SDS011;3986;41.884;23.466;2022-07-17T12:13:38;26.17;;;6.72;;
7881;SDS011;3986;41.884;23.466;2022-07-17T12:16:19;18.30;;;6.15;;
7881;SDS011;3986;41.884;23.466;2022-07-17T12:18:54;16.38;;;5.65;;
7881;SDS011;3986;41.884;23.466;2022-07-17T12:21:22;13.48;;;5.95;;
7881;SDS011;3986;41.884;23.466;2022-07-17T12:23:56;38.17;;;8.13;;
7881;SDS011;3986;41.884;23.466;2022-07-17T12:26:25;12.55;;;5.68;;
7881;SDS011;3986;41.884;23.466;2022-07-17T12:28:53;22.35;;;7.65;;
7881;SDS011;3986;41.884;23.466;2022-07-17T12:31:19;8.95;;;6.00;;
7881;SDS011;3986;41.884;23.466;2022-07-17T12:33:48;8.85;;;5.10;;
7881;SDS011;3986;41.884;23.466;2022-07-17T12:36:18;9.45;;;5.10;;
7881;SDS011;3986;41.884;23.466;2022-07-17T12:38:45;5.55;;;5.10;;
7881;SDS011;3986;41.884;23.466;2022-07-17T12:41:13;8.23;;;5.10;;
7881;SDS011;3986;41.884;23.466;2022-07-17T12:43:40;14.98;;;6.00;;
7881;SDS011;3986;41.884;23.466;2022-07-17T12:46:07;23.73;;;6.65;;
7881;SDS011;3986;41.884;23.466;2022-07-17T12:48:34;27.30;;;6.88;;
7881;SDS011;3986;41.884;23.466;2022-07-17T12:51:03;32.75;;;7.60;;
7881;SDS011;3986;41.884;23.466;2022-07-17T12:53:30;25.88;;;6.85;;
7881;SDS011;3986;41.884;23.466;2022-07-17T12:55:57;16.08;;;5.45;;
7881;SDS011;3986;41.884;23.466;2022-07-17T12:58:25;10.20;;;4.97;;
7881;SDS011;3986;41.884;23.466;2022-07-17T13:00:52;10.88;;;4.93;;
7881;SDS011;3986;41.884;23.466;2022-07-17T13:03:19;10.10;;;5.05;;
7881;SDS011;3986;41.884;23.466;2022-07-17T13:05:45;10.02;;;5.15;;
7881;SDS011;3986;41.884;23.466;2022-07-17T13:08:12;8.88;;;5.15;;
7881;SDS011;3986;41.884;23.466;2022-07-17T13:10:40;11.75;;;5.03;;
7881;SDS011;3986;41.884;23.466;2022-07-17T13:13:07;21.00;;;6.53;;
7881;SDS011;3986;41.884;23.466;2022-07-17T13:15:36;19.10;;;6.55;;
7881;SDS011;3986;41.884;23.466;2022-07-17T13:18:03;18.98;;;6.10;;
7881;SDS011;3986;41.884;23.466;2022-07-17T13:20:30;19.73;;;6.32;;
7881;SDS011;3986;41.884;23.466;2022-07-17T13:22:56;6.50;;;5.18;;
7881;SDS011;3986;41.884;23.466;2022-07-17T13:25:23;7.10;;;4.97;;
7881;SDS011;3986;41.884;23.466;2022-07-17T13:27:50;6.65;;;5.03;;
7881;SDS011;3986;41.884;23.466;2022-07-17T13:30:17;5.55;;;5.10;;
7881;SDS011;3986;41.884;23.466;2022-07-17T13:32:45;13.70;;;5.80;;
7881;SDS011;3986;41.884;23.466;2022-07-17T13:35:12;20.65;;;6.53;;
7881;SDS011;3986;41.884;23.466;2022-07-17T13:37:39;33.75;;;8.25;;
7881;SDS011;3986;41.884;23.466;2022-07-17T13:40:07;29.75;;;7.60;;
7881;SDS011;3986;41.884;23.466;2022-07-17T13:42:35;20.67;;;6.82;;
7881;SDS011;3986;41.884;23.466;2022-07-17T13:45:02;20.27;;;6.38;;
7881;SDS011;3986;41.884;23.466;2022-07-17T13:47:29;11.65;;;6.13;;
7881;SDS011;3986;41.884;23.466;2022-07-17T13:49:58;16.10;;;6.30;;
7881;SDS011;3986;41.884;23.466;2022-07-17T13:52:25;12.65;;;5.88;;
7881;SDS011;3986;41.884;23.466;2022-07-17T13:54:51;7.72;;;5.32;;
7881;SDS011;3986;41.884;23.466;2022-07-17T13:57:18;11.93;;;6.00;;
7881;SDS011;3986;41.884;23.466;2022-07-17T13:59:45;12.50;;;6.20;;
7881;SDS011;3986;41.884;23.466;2022-07-17T14:02:12;17.42;;;6.90;;
7881;SDS011;3986;41.884;23.466;2022-07-17T14:04:39;14.02;;;6.60;;
7881;SDS011;3986;41.884;23.466;2022-07-17T14:07:07;23.17;;;7.53;;
7881;SDS011;3986;41.884;23.466;2022-07-17T14:09:34;10.13;;;5.63;;
7881;SDS011;3986;41.884;23.466;2022-07-17T14:12:01;30.52;;;8.00;;
7881;SDS011;3986;41.884;23.466;2022-07-17T14:14:28;7.25;;;5.45;;
7881;SDS011;3986;41.884;23.466;2022-07-17T14:16:54;5.97;;;5.15;;
7881;SDS011;3986;41.884;23.466;2022-07-17T14:19:21;17.20;;;6.38;;
7881;SDS011;3986;41.884;23.466;2022-07-17T14:21:48;6.35;;;5.20;;
7881;SDS011;3986;41.884;23.466;2022-07-17T14:24:17;17.27;;;5.95;;
7881;SDS011;3986;41.884;23.466;2022-07-17T14:26:43;33.92;;;7.78;;
7881;SDS011;3986;41.884;23.466;2022-07-17T14:29:12;8.73;;;6.38;;
7881;SDS011;3986;41.884;23.466;2022-07-17T14:31:39;27.75;;;7.22;;
7881;SDS011;3986;41.884;23.466;2022-07-17T14:34:06;25.08;;;7.07;;
7881;SDS011;3986;41.884;23.466;2022-07-17T14:36:33;31.45;;;7.40;;
7881;SDS011;3986;41.884;23.466;2022-07-17T14:39:00;24.70;;;7.28;;
7881;SDS011;3986;41.884;23.466;2022-07-17T14:41:28;22.15;;;8.00;;
7881;SDS011;3986;41.884;23.466;2022-07-17T14:43:55;15.65;;;6.93;;